sensor_id;sensor_type;location;lat;lon;timestamp;P1;durP1;ratioP1;P2;durP2;ratioP2
20159;SDS011;50187;50.492;12.134;2023-04-30T00:02:21;2.63;;;2.43;;
20159;SDS011;50187;50.492;12.134;2023-04-30T00:04:48;2.87;;;2.67;;
20159;SDS011;50187;50.492;12.134;2023-04-30T00:07:14;2.43;;;2.17;;
20159;SDS011;50187;50.492;12.134;2023-04-30T00:09:41;2.30;;;2.20;;
20159;SDS011;50187;50.492;12.134;2023-04-30T00:12:07;2.53;;;2.43;;
20159;SDS011;50187;50.492;12.134;2023-04-30T00:14:34;2.77;;;2.57;;
20159;SDS011;50187;50.492;12.134;2023-04-30T00:17:01;2.10;;;2.00;;
20159;SDS011;50187;50.492;12.134;2023-04-30T00:19:28;2.43;;;2.30;;
20159;SDS011;50187;50.492;12.134;2023-04-30T00:21:54;2.37;;;2.17;;
20159;SDS011;50187;50.492;12.134;2023-04-30T00:24:21;2.53;;;2.33;;
20159;SDS011;50187;50.492;12.134;2023-04-30T00:26:47;2.53;;;2.43;;
20159;SDS011;50187;50.492;12.134;2023-04-30T00:29:14;2.33;;;2.20;;
20159;SDS011;50187;50.492;12.134;2023-04-30T00:31:40;2.80;;;2.60;;
20159;SDS011;50187;50.492;12.134;2023-04-30T00:34:07;2.00;;;1.90;;
20159;SDS011;50187;50.492;12.134;2023-04-30T00:36:33;2.70;;;2.50;;
20159;SDS011;50187;50.492;12.134;2023-04-30T00:39:01;2.37;;;2.20;;
20159;SDS011;50187;50.492;12.134;2023-04-30T00:41:27;2.33;;;2.23;;
20159;SDS011;50187;50.492;12.134;2023-04-30T00:43:55;2.30;;;2.20;;
20159;SDS011;50187;50.492;12.134;2023-04-30T00:46:22;2.70;;;2.50;;
20159;SDS011;50187;50.492;12.134;2023-04-30T00:48:48;2.53;;;2.33;;
20159;SDS011;50187;50.492;12.134;2023-04-30T00:51:15;2.47;;;2.37;;
20159;SDS011;50187;50.492;12.134;2023-04-30T00:53:41;2.40;;;2.20;;
20159;SDS011;50187;50.492;12.134;2023-04-30T00:56:09;2.30;;;2.20;;
20159;SDS011;50187;50.492;12.134;2023-04-30T00:58:36;2.50;;;2.30;;
20159;SDS011;50187;50.492;12.134;2023-04-30T01:01:02;2.50;;;2.30;;
20159;SDS011;50187;50.492;12.134;2023-04-30T01:03:29;2.50;;;2.30;;
20159;SDS011;50187;50.492;12.134;2023-04-30T01:05:56;2.40;;;2.30;;
20159;SDS011;50187;50.492;12.134;2023-04-30T01:08:23;2.70;;;2.50;;
20159;SDS011;50187;50.492;12.134;2023-04-30T01:10:54;2.40;;;2.20;;
20159;SDS011;50187;50.492;12.134;2023-04-30T01:13:47;2.00;;;1.90;;
20159;SDS011;50187;50.492;12.134;2023-04-30T01:16:22;2.90;;;2.70;;
20159;SDS011;50187;50.492;12.134;2023-04-30T01:18:59;2.30;;;2.20;;
20159;SDS011;50187;50.492;12.134;2023-04-30T01:21:30;2.33;;;2.23;;
20159;SDS011;50187;50.492;12.134;2023-04-30T01:30:26;2.93;;;2.30;;
20159;SDS011;50187;50.492;12.134;2023-04-30T01:32:55;2.10;;;2.00;;
20159;SDS011;50187;50.492;12.134;2023-04-30T01:35:24;2.87;;;2.67;;
20159;SDS011;50187;50.492;12.134;2023-04-30T01:40:54;2.47;;;2.37;;
20159;SDS011;50187;50.492;12.134;2023-04-30T01:51:40;2.60;;;2.40;;
20159;SDS011;50187;50.492;12.134;2023-04-30T01:57:07;2.63;;;2.50;;
20159;SDS011;50187;50.492;12.134;2023-04-30T01:59:41;2.40;;;2.30;;
20159;SDS011;50187;50.492;12.134;2023-04-30T02:02:08;2.53;;;2.33;;
20159;SDS011;50187;50.492;12.134;2023-04-30T02:04:35;2.87;;;2.73;;
20159;SDS011;50187;50.492;12.134;2023-04-30T02:07:02;2.50;;;2.30;;
20159;SDS011;50187;50.492;12.134;2023-04-30T02:09:29;2.63;;;2.43;;
20159;SDS011;50187;50.492;12.134;2023-04-30T02:11:55;2.60;;;2.40;;
20159;SDS011;50187;50.492;12.134;2023-04-30T02:14:23;2.67;;;2.47;;
20159;SDS011;50187;50.492;12.134;2023-04-30T02:16:51;2.60;;;2.40;;
20159;SDS011;50187;50.492;12.134;2023-04-30T02:19:18;2.17;;;2.07;;
20159;SDS011;50187;50.492;12.134;2023-04-30T02:21:44;2.47;;;2.27;;
20159;SDS011;50187;50.492;12.134;2023-04-30T02:24:11;2.60;;;2.43;;
20159;SDS011;50187;50.492;12.134;2023-04-30T02:26:37;2.30;;;2.20;;
20159;SDS011;50187;50.492;12.134;2023-04-30T02:29:04;2.10;;;2.00;;
20159;SDS011;50187;50.492;12.134;2023-04-30T02:31:30;2.50;;;2.40;;
20159;SDS011;50187;50.492;12.134;2023-04-30T02:33:57;2.30;;;2.10;;
20159;SDS011;50187;50.492;12.134;2023-04-30T02:36:23;2.30;;;2.20;;
20159;SDS011;50187;50.492;12.134;2023-04-30T02:38:50;2.07;;;1.97;;
20159;SDS011;50187;50.492;12.134;2023-04-30T02:41:17;3.63;;;2.40;;
20159;SDS011;50187;50.492;12.134;2023-04-30T02:43:43;2.53;;;2.43;;
20159;SDS011;50187;50.492;12.134;2023-04-30T02:46:10;2.70;;;2.50;;
20159;SDS011;50187;50.492;12.134;2023-04-30T02:48:36;2.37;;;2.23;;
20159;SDS011;50187;50.492;12.134;2023-04-30T02:51:03;2.30;;;2.20;;
20159;SDS011;50187;50.492;12.134;2023-04-30T02:53:29;2.30;;;2.20;;
20159;SDS011;50187;50.492;12.134;2023-04-30T02:55:56;2.80;;;2.60;;
20159;SDS011;50187;50.492;12.134;2023-04-30T02:58:24;2.20;;;2.10;;
20159;SDS011;50187;50.492;12.134;2023-04-30T03:00:51;1.93;;;1.83;;
20159;SDS011;50187;50.492;12.134;2023-04-30T03:03:18;2.13;;;2.03;;
20159;SDS011;50187;50.492;12.134;2023-04-30T03:05:44;2.50;;;2.30;;
20159;SDS011;50187;50.492;12.134;2023-04-30T03:08:11;1.97;;;1.87;;
20159;SDS011;50187;50.492;12.134;2023-04-30T03:10:38;2.37;;;2.17;;
20159;SDS011;50187;50.492;12.134;2023-04-30T03:13:04;2.30;;;2.10;;
20159;SDS011;50187;50.492;12.134;2023-04-30T03:15:32;2.93;;;2.73;;
20159;SDS011;50187;50.492;12.134;2023-04-30T03:17:59;2.30;;;2.20;;
20159;SDS011;50187;50.492;12.134;2023-04-30T03:20:25;2.23;;;2.13;;
20159;SDS011;50187;50.492;12.134;2023-04-30T03:22:52;2.00;;;1.90;;
20159;SDS011;50187;50.492;12.134;2023-04-30T03:25:18;2.17;;;2.07;;
20159;SDS011;50187;50.492;12.134;2023-04-30T03:27:45;2.57;;;2.47;;
20159;SDS011;50187;50.492;12.134;2023-04-30T03:30:11;2.20;;;2.10;;
20159;SDS011;50187;50.492;12.134;2023-04-30T03:32:38;2.50;;;2.40;;
20159;SDS011;50187;50.492;12.134;2023-04-30T03:35:04;2.13;;;2.03;;
20159;SDS011;50187;50.492;12.134;2023-04-30T03:37:31;2.30;;;2.20;;
20159;SDS011;50187;50.492;12.134;2023-04-30T03:39:58;2.40;;;2.20;;
20159;SDS011;50187;50.492;12.134;2023-04-30T03:42:25;2.60;;;2.40;;
20159;SDS011;50187;50.492;12.134;2023-04-30T03:44:52;2.37;;;2.27;;
20159;SDS011;50187;50.492;12.134;2023-04-30T03:47:18;2.20;;;2.10;;
20159;SDS011;50187;50.492;12.134;2023-04-30T03:49:45;2.10;;;2.00;;
20159;SDS011;50187;50.492;12.134;2023-04-30T03:52:14;2.10;;;2.00;;
20159;SDS011;50187;50.492;12.134;2023-04-30T03:54:41;2.40;;;2.20;;
20159;SDS011;50187;50.492;12.134;2023-04-30T03:57:07;2.30;;;2.20;;
20159;SDS011;50187;50.492;12.134;2023-04-30T03:59:35;2.23;;;2.13;;
20159;SDS011;50187;50.492;12.134;2023-04-30T04:02:02;2.10;;;2.00;;
20159;SDS011;50187;50.492;12.134;2023-04-30T04:04:28;1.93;;;1.83;;
20159;SDS011;50187;50.492;12.134;2023-04-30T04:06:55;2.07;;;1.97;;
20159;SDS011;50187;50.492;12.134;2023-04-30T04:09:22;2.40;;;2.20;;
20159;SDS011;50187;50.492;12.134;2023-04-30T04:11:48;2.00;;;1.90;;
20159;SDS011;50187;50.492;12.134;2023-04-30T04:14:15;2.20;;;2.10;;
20159;SDS011;50187;50.492;12.134;2023-04-30T04:16:42;2.60;;;2.40;;
20159;SDS011;50187;50.492;12.134;2023-04-30T04:19:09;2.47;;;2.30;;
20159;SDS011;50187;50.492;12.134;2023-04-30T04:21:38;2.57;;;2.17;;
20159;SDS011;50187;50.492;12.134;2023-04-30T04:24:11;2.10;;;2.00;;
20159;SDS011;50187;50.492;12.134;2023-04-30T04:26:38;2.27;;;2.17;;
20159;SDS011;50187;50.492;12.134;2023-04-30T04:29:06;1.90;;;1.80;;
20159;SDS011;50187;50.492;12.134;2023-04-30T04:31:35;2.07;;;1.97;;
20159;SDS011;50187;50.492;12.134;2023-04-30T04:34:02;2.40;;;2.20;;
20159;SDS011;50187;50.492;12.134;2023-04-30T04:36:30;2.40;;;2.20;;
20159;SDS011;50187;50.492;12.134;2023-04-30T04:38:59;2.10;;;2.00;;
20159;SDS011;50187;50.492;12.134;2023-04-30T04:41:29;2.03;;;1.93;;
20159;SDS011;50187;50.492;12.134;2023-04-30T04:44:02;2.00;;;1.90;;
20159;SDS011;50187;50.492;12.134;2023-04-30T04:46:29;1.90;;;1.80;;
20159;SDS011;50187;50.492;12.134;2023-04-30T04:48:57;1.57;;;1.47;;
20159;SDS011;50187;50.492;12.134;2023-04-30T04:51:23;2.00;;;1.90;;
20159;SDS011;50187;50.492;12.134;2023-04-30T04:53:50;2.30;;;2.20;;
20159;SDS011;50187;50.492;12.134;2023-04-30T04:56:18;2.17;;;2.07;;
20159;SDS011;50187;50.492;12.134;2023-04-30T04:58:45;2.23;;;2.10;;
20159;SDS011;50187;50.492;12.134;2023-04-30T05:01:12;2.50;;;2.17;;
20159;SDS011;50187;50.492;12.134;2023-04-30T05:03:39;2.10;;;2.00;;
20159;SDS011;50187;50.492;12.134;2023-04-30T05:06:06;1.70;;;1.60;;
20159;SDS011;50187;50.492;12.134;2023-04-30T05:08:32;2.10;;;2.00;;
20159;SDS011;50187;50.492;12.134;2023-04-30T05:10:59;2.10;;;2.00;;
20159;SDS011;50187;50.492;12.134;2023-04-30T05:13:26;2.37;;;2.27;;
20159;SDS011;50187;50.492;12.134;2023-04-30T05:15:52;2.23;;;2.13;;
20159;SDS011;50187;50.492;12.134;2023-04-30T05:18:19;1.93;;;1.83;;
20159;SDS011;50187;50.492;12.134;2023-04-30T05:20:46;2.20;;;2.00;;
20159;SDS011;50187;50.492;12.134;2023-04-30T05:23:12;2.13;;;2.03;;
20159;SDS011;50187;50.492;12.134;2023-04-30T05:25:39;2.87;;;2.40;;
20159;SDS011;50187;50.492;12.134;2023-04-30T05:28:05;2.40;;;2.30;;
20159;SDS011;50187;50.492;12.134;2023-04-30T05:30:32;2.47;;;2.33;;
20159;SDS011;50187;50.492;12.134;2023-04-30T05:32:59;2.57;;;2.37;;
20159;SDS011;50187;50.492;12.134;2023-04-30T05:35:25;2.73;;;2.53;;
20159;SDS011;50187;50.492;12.134;2023-04-30T05:37:52;2.97;;;2.77;;
20159;SDS011;50187;50.492;12.134;2023-04-30T05:40:19;2.90;;;2.70;;
20159;SDS011;50187;50.492;12.134;2023-04-30T05:42:45;3.63;;;3.03;;
20159;SDS011;50187;50.492;12.134;2023-04-30T05:45:12;2.60;;;2.50;;
20159;SDS011;50187;50.492;12.134;2023-04-30T05:47:39;3.20;;;2.90;;
20159;SDS011;50187;50.492;12.134;2023-04-30T05:50:07;2.90;;;2.70;;
20159;SDS011;50187;50.492;12.134;2023-04-30T05:52:35;3.47;;;3.17;;
20159;SDS011;50187;50.492;12.134;2023-04-30T05:55:01;3.30;;;3.00;;
20159;SDS011;50187;50.492;12.134;2023-04-30T05:57:28;3.10;;;2.90;;
20159;SDS011;50187;50.492;12.134;2023-04-30T05:59:54;3.27;;;3.07;;
20159;SDS011;50187;50.492;12.134;2023-04-30T06:02:21;3.37;;;3.10;;
20159;SDS011;50187;50.492;12.134;2023-04-30T06:04:48;3.60;;;3.30;;
20159;SDS011;50187;50.492;12.134;2023-04-30T06:07:14;3.83;;;3.53;;
20159;SDS011;50187;50.492;12.134;2023-04-30T06:09:41;3.80;;;3.50;;
20159;SDS011;50187;50.492;12.134;2023-04-30T06:12:07;3.27;;;3.03;;
20159;SDS011;50187;50.492;12.134;2023-04-30T06:14:34;3.70;;;3.50;;
20159;SDS011;50187;50.492;12.134;2023-04-30T06:17:01;3.80;;;3.50;;
20159;SDS011;50187;50.492;12.134;2023-04-30T06:19:28;4.00;;;3.70;;
20159;SDS011;50187;50.492;12.134;2023-04-30T06:21:54;3.70;;;3.40;;
20159;SDS011;50187;50.492;12.134;2023-04-30T06:24:21;3.60;;;3.30;;
20159;SDS011;50187;50.492;12.134;2023-04-30T06:26:47;3.57;;;3.30;;
20159;SDS011;50187;50.492;12.134;2023-04-30T06:29:14;4.27;;;3.97;;
20159;SDS011;50187;50.492;12.134;2023-04-30T06:31:40;3.90;;;3.60;;
20159;SDS011;50187;50.492;12.134;2023-04-30T06:34:07;3.87;;;3.57;;
20159;SDS011;50187;50.492;12.134;2023-04-30T06:36:34;4.00;;;3.70;;
20159;SDS011;50187;50.492;12.134;2023-04-30T06:39:00;4.23;;;3.93;;
20159;SDS011;50187;50.492;12.134;2023-04-30T06:41:27;4.37;;;3.97;;
20159;SDS011;50187;50.492;12.134;2023-04-30T06:43:53;4.17;;;3.87;;
20159;SDS011;50187;50.492;12.134;2023-04-30T06:46:21;4.17;;;3.63;;
20159;SDS011;50187;50.492;12.134;2023-04-30T06:48:47;3.93;;;3.63;;
20159;SDS011;50187;50.492;12.134;2023-04-30T06:51:13;4.00;;;3.70;;
20159;SDS011;50187;50.492;12.134;2023-04-30T06:53:40;4.00;;;3.70;;
20159;SDS011;50187;50.492;12.134;2023-04-30T06:56:07;3.67;;;3.37;;
20159;SDS011;50187;50.492;12.134;2023-04-30T06:58:33;4.10;;;3.80;;
20159;SDS011;50187;50.492;12.134;2023-04-30T07:00:59;4.00;;;3.70;;
20159;SDS011;50187;50.492;12.134;2023-04-30T07:03:26;3.67;;;3.37;;
20159;SDS011;50187;50.492;12.134;2023-04-30T07:05:53;3.97;;;3.67;;
20159;SDS011;50187;50.492;12.134;2023-04-30T07:08:20;4.17;;;3.87;;
20159;SDS011;50187;50.492;12.134;2023-04-30T07:10:47;4.50;;;3.97;;
20159;SDS011;50187;50.492;12.134;2023-04-30T07:13:13;4.43;;;4.13;;
20159;SDS011;50187;50.492;12.134;2023-04-30T07:15:41;4.37;;;3.97;;
20159;SDS011;50187;50.492;12.134;2023-04-30T07:18:08;4.00;;;3.70;;
20159;SDS011;50187;50.492;12.134;2023-04-30T07:20:35;4.03;;;3.73;;
20159;SDS011;50187;50.492;12.134;2023-04-30T07:23:02;4.07;;;3.67;;
20159;SDS011;50187;50.492;12.134;2023-04-30T07:25:28;4.03;;;3.73;;
20159;SDS011;50187;50.492;12.134;2023-04-30T07:27:55;4.23;;;3.93;;
20159;SDS011;50187;50.492;12.134;2023-04-30T07:30:21;3.70;;;3.40;;
20159;SDS011;50187;50.492;12.134;2023-04-30T07:32:50;3.53;;;3.33;;
20159;SDS011;50187;50.492;12.134;2023-04-30T07:35:17;3.57;;;3.37;;
20159;SDS011;50187;50.492;12.134;2023-04-30T07:37:44;3.40;;;3.20;;
20159;SDS011;50187;50.492;12.134;2023-04-30T07:40:10;3.90;;;3.60;;
20159;SDS011;50187;50.492;12.134;2023-04-30T07:42:44;4.00;;;3.70;;
20159;SDS011;50187;50.492;12.134;2023-04-30T07:45:11;3.47;;;3.27;;
20159;SDS011;50187;50.492;12.134;2023-04-30T07:47:38;3.77;;;3.47;;
20159;SDS011;50187;50.492;12.134;2023-04-30T07:50:05;4.20;;;3.87;;
20159;SDS011;50187;50.492;12.134;2023-04-30T07:52:32;3.90;;;3.60;;
20159;SDS011;50187;50.492;12.134;2023-04-30T07:54:58;4.37;;;3.97;;
20159;SDS011;50187;50.492;12.134;2023-04-30T07:57:25;4.10;;;3.80;;
20159;SDS011;50187;50.492;12.134;2023-04-30T07:59:52;3.50;;;3.30;;
20159;SDS011;50187;50.492;12.134;2023-04-30T08:02:20;4.00;;;3.70;;
20159;SDS011;50187;50.492;12.134;2023-04-30T08:04:47;4.07;;;3.77;;
20159;SDS011;50187;50.492;12.134;2023-04-30T08:07:14;4.20;;;3.90;;
20159;SDS011;50187;50.492;12.134;2023-04-30T08:09:43;4.30;;;4.00;;
20159;SDS011;50187;50.492;12.134;2023-04-30T08:12:09;4.33;;;3.93;;
20159;SDS011;50187;50.492;12.134;2023-04-30T08:14:36;4.10;;;3.80;;
20159;SDS011;50187;50.492;12.134;2023-04-30T08:17:02;4.07;;;3.77;;
20159;SDS011;50187;50.492;12.134;2023-04-30T08:19:29;3.57;;;3.37;;
20159;SDS011;50187;50.492;12.134;2023-04-30T08:21:56;3.70;;;3.40;;
20159;SDS011;50187;50.492;12.134;2023-04-30T08:24:24;3.60;;;3.40;;
20159;SDS011;50187;50.492;12.134;2023-04-30T08:26:50;4.43;;;4.07;;
20159;SDS011;50187;50.492;12.134;2023-04-30T08:29:19;3.87;;;3.67;;
20159;SDS011;50187;50.492;12.134;2023-04-30T08:31:46;3.60;;;3.40;;
20159;SDS011;50187;50.492;12.134;2023-04-30T08:34:13;3.80;;;3.33;;
20159;SDS011;50187;50.492;12.134;2023-04-30T08:36:39;3.53;;;3.33;;
20159;SDS011;50187;50.492;12.134;2023-04-30T08:39:06;3.47;;;3.13;;
20159;SDS011;50187;50.492;12.134;2023-04-30T08:41:33;4.10;;;3.73;;
20159;SDS011;50187;50.492;12.134;2023-04-30T08:44:01;4.30;;;4.00;;
20159;SDS011;50187;50.492;12.134;2023-04-30T08:46:31;7.97;;;4.23;;
20159;SDS011;50187;50.492;12.134;2023-04-30T08:49:01;5.10;;;3.90;;
20159;SDS011;50187;50.492;12.134;2023-04-30T08:51:29;4.63;;;4.10;;
20159;SDS011;50187;50.492;12.134;2023-04-30T08:53:57;3.93;;;3.63;;
20159;SDS011;50187;50.492;12.134;2023-04-30T08:56:24;4.70;;;3.30;;
20159;SDS011;50187;50.492;12.134;2023-04-30T08:58:51;7.33;;;3.80;;
20159;SDS011;50187;50.492;12.134;2023-04-30T09:01:17;4.63;;;3.57;;
20159;SDS011;50187;50.492;12.134;2023-04-30T09:03:45;4.37;;;4.00;;
20159;SDS011;50187;50.492;12.134;2023-04-30T09:06:15;4.97;;;3.50;;
20159;SDS011;50187;50.492;12.134;2023-04-30T09:08:46;4.20;;;3.70;;
20159;SDS011;50187;50.492;12.134;2023-04-30T09:13:51;4.67;;;4.27;;
20159;SDS011;50187;50.492;12.134;2023-04-30T09:16:20;4.17;;;3.87;;
20159;SDS011;50187;50.492;12.134;2023-04-30T09:18:47;4.03;;;3.73;;
20159;SDS011;50187;50.492;12.134;2023-04-30T09:21:14;4.17;;;3.77;;
20159;SDS011;50187;50.492;12.134;2023-04-30T09:23:54;3.80;;;3.50;;
20159;SDS011;50187;50.492;12.134;2023-04-30T09:26:25;4.00;;;3.60;;
20159;SDS011;50187;50.492;12.134;2023-04-30T09:28:56;4.20;;;3.90;;
20159;SDS011;50187;50.492;12.134;2023-04-30T09:31:23;4.30;;;3.70;;
20159;SDS011;50187;50.492;12.134;2023-04-30T09:33:51;4.67;;;4.00;;
20159;SDS011;50187;50.492;12.134;2023-04-30T09:36:19;3.87;;;3.57;;
20159;SDS011;50187;50.492;12.134;2023-04-30T09:38:46;3.97;;;3.57;;
20159;SDS011;50187;50.492;12.134;2023-04-30T09:41:25;3.97;;;3.60;;
20159;SDS011;50187;50.492;12.134;2023-04-30T09:43:54;4.43;;;4.13;;
20159;SDS011;50187;50.492;12.134;2023-04-30T09:46:28;5.47;;;3.40;;
20159;SDS011;50187;50.492;12.134;2023-04-30T09:48:57;4.37;;;3.97;;
20159;SDS011;50187;50.492;12.134;2023-04-30T09:51:25;3.53;;;3.30;;
20159;SDS011;50187;50.492;12.134;2023-04-30T09:53:55;4.23;;;3.63;;
20159;SDS011;50187;50.492;12.134;2023-04-30T09:56:24;3.97;;;3.67;;
20159;SDS011;50187;50.492;12.134;2023-04-30T09:58:55;3.80;;;3.50;;
20159;SDS011;50187;50.492;12.134;2023-04-30T10:01:25;3.67;;;3.47;;
20159;SDS011;50187;50.492;12.134;2023-04-30T10:03:52;3.40;;;3.13;;
20159;SDS011;50187;50.492;12.134;2023-04-30T10:06:20;3.70;;;3.37;;
20159;SDS011;50187;50.492;12.134;2023-04-30T10:08:48;4.07;;;3.77;;
20159;SDS011;50187;50.492;12.134;2023-04-30T10:11:19;3.83;;;3.53;;
20159;SDS011;50187;50.492;12.134;2023-04-30T10:13:53;4.17;;;3.87;;
20159;SDS011;50187;50.492;12.134;2023-04-30T10:16:41;3.67;;;3.37;;
20159;SDS011;50187;50.492;12.134;2023-04-30T10:19:13;3.80;;;3.50;;
20159;SDS011;50187;50.492;12.134;2023-04-30T10:21:44;3.60;;;3.33;;
20159;SDS011;50187;50.492;12.134;2023-04-30T10:24:12;3.83;;;3.53;;
20159;SDS011;50187;50.492;12.134;2023-04-30T10:26:40;3.90;;;3.60;;
20159;SDS011;50187;50.492;12.134;2023-04-30T10:29:07;3.77;;;3.47;;
20159;SDS011;50187;50.492;12.134;2023-04-30T10:31:34;3.73;;;3.43;;
20159;SDS011;50187;50.492;12.134;2023-04-30T10:34:13;3.83;;;3.53;;
20159;SDS011;50187;50.492;12.134;2023-04-30T10:36:46;4.00;;;3.70;;
20159;SDS011;50187;50.492;12.134;2023-04-30T10:39:19;3.97;;;3.67;;
20159;SDS011;50187;50.492;12.134;2023-04-30T10:41:47;3.40;;;3.10;;
20159;SDS011;50187;50.492;12.134;2023-04-30T10:44:14;3.90;;;3.60;;
20159;SDS011;50187;50.492;12.134;2023-04-30T10:46:46;3.57;;;3.37;;
20159;SDS011;50187;50.492;12.134;2023-04-30T10:49:13;3.50;;;3.30;;
20159;SDS011;50187;50.492;12.134;2023-04-30T10:51:46;4.17;;;3.87;;
20159;SDS011;50187;50.492;12.134;2023-04-30T10:54:14;4.43;;;3.50;;
20159;SDS011;50187;50.492;12.134;2023-04-30T10:56:45;4.30;;;3.90;;
20159;SDS011;50187;50.492;12.134;2023-04-30T10:59:13;3.70;;;3.40;;
20159;SDS011;50187;50.492;12.134;2023-04-30T11:01:53;4.03;;;3.73;;
20159;SDS011;50187;50.492;12.134;2023-04-30T11:04:22;6.13;;;4.50;;
20159;SDS011;50187;50.492;12.134;2023-04-30T11:09:19;4.13;;;3.83;;
20159;SDS011;50187;50.492;12.134;2023-04-30T11:12:14;4.17;;;3.87;;
20159;SDS011;50187;50.492;12.134;2023-04-30T11:14:45;5.07;;;4.40;;
20159;SDS011;50187;50.492;12.134;2023-04-30T11:17:20;4.07;;;3.77;;
20159;SDS011;50187;50.492;12.134;2023-04-30T11:19:50;4.30;;;4.00;;
20159;SDS011;50187;50.492;12.134;2023-04-30T11:22:21;4.33;;;4.03;;
20159;SDS011;50187;50.492;12.134;2023-04-30T11:24:53;4.70;;;4.30;;
20159;SDS011;50187;50.492;12.134;2023-04-30T11:27:29;4.30;;;3.90;;
20159;SDS011;50187;50.492;12.134;2023-04-30T11:29:58;4.37;;;4.07;;
20159;SDS011;50187;50.492;12.134;2023-04-30T11:32:30;4.30;;;3.90;;
20159;SDS011;50187;50.492;12.134;2023-04-30T11:35:00;4.40;;;4.10;;
20159;SDS011;50187;50.492;12.134;2023-04-30T11:37:32;4.23;;;3.87;;
20159;SDS011;50187;50.492;12.134;2023-04-30T11:40:07;3.97;;;3.70;;
20159;SDS011;50187;50.492;12.134;2023-04-30T11:42:36;4.27;;;3.97;;
20159;SDS011;50187;50.492;12.134;2023-04-30T11:47:45;4.13;;;3.83;;
20159;SDS011;50187;50.492;12.134;2023-04-30T11:50:31;4.00;;;3.70;;
20159;SDS011;50187;50.492;12.134;2023-04-30T11:52:59;4.23;;;3.93;;
20159;SDS011;50187;50.492;12.134;2023-04-30T11:55:30;4.67;;;4.27;;
20159;SDS011;50187;50.492;12.134;2023-04-30T11:57:57;4.30;;;4.00;;
20159;SDS011;50187;50.492;12.134;2023-04-30T12:00:26;4.20;;;3.87;;
20159;SDS011;50187;50.492;12.134;2023-04-30T12:02:55;4.30;;;3.90;;
20159;SDS011;50187;50.492;12.134;2023-04-30T12:05:24;4.60;;;4.20;;
20159;SDS011;50187;50.492;12.134;2023-04-30T12:08:00;4.63;;;4.30;;
20159;SDS011;50187;50.492;12.134;2023-04-30T12:10:38;4.47;;;4.07;;
20159;SDS011;50187;50.492;12.134;2023-04-30T12:13:04;4.60;;;4.00;;
20159;SDS011;50187;50.492;12.134;2023-04-30T12:15:31;4.10;;;3.80;;
20159;SDS011;50187;50.492;12.134;2023-04-30T12:17:58;4.33;;;4.03;;
20159;SDS011;50187;50.492;12.134;2023-04-30T12:20:26;4.43;;;4.03;;
20159;SDS011;50187;50.492;12.134;2023-04-30T12:22:56;4.83;;;4.43;;
20159;SDS011;50187;50.492;12.134;2023-04-30T12:25:23;5.17;;;4.67;;
20159;SDS011;50187;50.492;12.134;2023-04-30T12:27:50;4.97;;;4.47;;
20159;SDS011;50187;50.492;12.134;2023-04-30T12:30:19;3.97;;;3.57;;
20159;SDS011;50187;50.492;12.134;2023-04-30T12:32:50;4.23;;;3.93;;
20159;SDS011;50187;50.492;12.134;2023-04-30T12:35:19;4.33;;;4.00;;
20159;SDS011;50187;50.492;12.134;2023-04-30T12:37:48;4.93;;;4.47;;
20159;SDS011;50187;50.492;12.134;2023-04-30T12:40:17;4.70;;;4.30;;
20159;SDS011;50187;50.492;12.134;2023-04-30T12:42:45;4.17;;;3.87;;
20159;SDS011;50187;50.492;12.134;2023-04-30T12:45:13;4.33;;;3.90;;
20159;SDS011;50187;50.492;12.134;2023-04-30T12:48:16;3.73;;;3.43;;
20159;SDS011;50187;50.492;12.134;2023-04-30T12:50:50;4.57;;;4.13;;
20159;SDS011;50187;50.492;12.134;2023-04-30T12:53:18;4.77;;;4.37;;
20159;SDS011;50187;50.492;12.134;2023-04-30T12:58:51;3.87;;;3.57;;
20159;SDS011;50187;50.492;12.134;2023-04-30T13:01:19;4.17;;;3.77;;
20159;SDS011;50187;50.492;12.134;2023-04-30T13:03:48;4.43;;;4.03;;
20159;SDS011;50187;50.492;12.134;2023-04-30T13:06:15;4.67;;;4.27;;
20159;SDS011;50187;50.492;12.134;2023-04-30T13:08:42;3.80;;;3.50;;
20159;SDS011;50187;50.492;12.134;2023-04-30T13:11:23;4.30;;;3.90;;
20159;SDS011;50187;50.492;12.134;2023-04-30T13:13:51;4.83;;;4.43;;
20159;SDS011;50187;50.492;12.134;2023-04-30T13:16:20;4.47;;;4.07;;
20159;SDS011;50187;50.492;12.134;2023-04-30T13:18:47;4.47;;;4.17;;
20159;SDS011;50187;50.492;12.134;2023-04-30T13:21:13;4.47;;;4.07;;
20159;SDS011;50187;50.492;12.134;2023-04-30T13:23:40;3.53;;;3.33;;
20159;SDS011;50187;50.492;12.134;2023-04-30T13:26:19;4.37;;;3.97;;
20159;SDS011;50187;50.492;12.134;2023-04-30T13:28:46;4.40;;;4.10;;
20159;SDS011;50187;50.492;12.134;2023-04-30T13:31:13;3.97;;;3.67;;
20159;SDS011;50187;50.492;12.134;2023-04-30T13:33:39;4.53;;;4.13;;
20159;SDS011;50187;50.492;12.134;2023-04-30T13:36:07;4.30;;;3.90;;
20159;SDS011;50187;50.492;12.134;2023-04-30T13:38:33;4.33;;;3.93;;
20159;SDS011;50187;50.492;12.134;2023-04-30T13:41:00;4.10;;;3.80;;
20159;SDS011;50187;50.492;12.134;2023-04-30T13:43:26;4.27;;;3.87;;
20159;SDS011;50187;50.492;12.134;2023-04-30T13:45:53;4.60;;;4.27;;
20159;SDS011;50187;50.492;12.134;2023-04-30T13:48:19;4.00;;;3.70;;
20159;SDS011;50187;50.492;12.134;2023-04-30T13:50:45;3.90;;;3.60;;
20159;SDS011;50187;50.492;12.134;2023-04-30T13:53:12;3.87;;;3.67;;
20159;SDS011;50187;50.492;12.134;2023-04-30T13:55:39;4.70;;;4.20;;
20159;SDS011;50187;50.492;12.134;2023-04-30T13:58:06;3.93;;;3.63;;
20159;SDS011;50187;50.492;12.134;2023-04-30T14:00:32;4.10;;;3.80;;
20159;SDS011;50187;50.492;12.134;2023-04-30T14:02:59;4.30;;;3.90;;
20159;SDS011;50187;50.492;12.134;2023-04-30T14:05:25;4.13;;;3.73;;
20159;SDS011;50187;50.492;12.134;2023-04-30T14:07:52;4.93;;;4.53;;
20159;SDS011;50187;50.492;12.134;2023-04-30T14:10:19;5.30;;;4.60;;
20159;SDS011;50187;50.492;12.134;2023-04-30T14:12:45;4.40;;;4.00;;
20159;SDS011;50187;50.492;12.134;2023-04-30T14:15:12;4.67;;;4.23;;
20159;SDS011;50187;50.492;12.134;2023-04-30T14:17:38;4.03;;;3.60;;
20159;SDS011;50187;50.492;12.134;2023-04-30T14:20:05;4.40;;;4.07;;
20159;SDS011;50187;50.492;12.134;2023-04-30T14:22:33;4.17;;;3.77;;
20159;SDS011;50187;50.492;12.134;2023-04-30T14:25:03;4.27;;;3.70;;
20159;SDS011;50187;50.492;12.134;2023-04-30T14:27:30;4.20;;;3.90;;
20159;SDS011;50187;50.492;12.134;2023-04-30T14:29:57;3.97;;;3.57;;
20159;SDS011;50187;50.492;12.134;2023-04-30T14:32:24;4.30;;;3.90;;
20159;SDS011;50187;50.492;12.134;2023-04-30T14:34:51;3.70;;;3.40;;
20159;SDS011;50187;50.492;12.134;2023-04-30T14:37:18;4.17;;;3.77;;
20159;SDS011;50187;50.492;12.134;2023-04-30T14:39:45;4.30;;;3.90;;
20159;SDS011;50187;50.492;12.134;2023-04-30T14:42:11;4.30;;;3.90;;
20159;SDS011;50187;50.492;12.134;2023-04-30T14:44:38;3.53;;;3.30;;
20159;SDS011;50187;50.492;12.134;2023-04-30T14:47:05;3.93;;;3.63;;
20159;SDS011;50187;50.492;12.134;2023-04-30T14:49:32;3.87;;;3.57;;
20159;SDS011;50187;50.492;12.134;2023-04-30T14:51:58;5.20;;;4.80;;
20159;SDS011;50187;50.492;12.134;2023-04-30T14:54:25;4.07;;;3.67;;
20159;SDS011;50187;50.492;12.134;2023-04-30T14:56:51;5.43;;;4.93;;
20159;SDS011;50187;50.492;12.134;2023-04-30T14:59:18;5.93;;;5.43;;
20159;SDS011;50187;50.492;12.134;2023-04-30T15:01:45;4.60;;;4.20;;
20159;SDS011;50187;50.492;12.134;2023-04-30T15:04:11;5.87;;;4.93;;
20159;SDS011;50187;50.492;12.134;2023-04-30T15:06:38;7.17;;;6.07;;
20159;SDS011;50187;50.492;12.134;2023-04-30T15:09:04;7.07;;;6.47;;
20159;SDS011;50187;50.492;12.134;2023-04-30T15:11:31;7.60;;;6.73;;